createdAt,value
2016-12-28T00:00:10.422Z,1031.62
2016-12-28T00:01:24.864Z,1031.62
2016-12-28T00:02:39.216Z,1031.68
2016-12-28T00:03:53.723Z,1031.63
2016-12-28T00:05:08.244Z,1031.62
2016-12-28T00:06:23.551Z,1031.6
2016-12-28T00:07:38.673Z,1031.68
2016-12-28T00:08:54.155Z,1031.67
2016-12-28T00:10:08.330Z,1031.69
2016-12-28T00:11:22.575Z,1031.7
2016-12-28T00:12:37.865Z,1031.7
2016-12-28T00:13:53.432Z,1031.73
2016-12-28T00:15:08.736Z,1031.74
2016-12-28T00:16:23.783Z,1031.71
2016-12-28T00:17:38.656Z,1031.73
2016-12-28T00:18:53.451Z,1031.73
2016-12-28T00:20:08.992Z,1031.77
2016-12-28T00:21:23.690Z,1031.84
2016-12-28T00:22:38.460Z,1031.86
2016-12-28T00:23:53.464Z,1031.88
2016-12-28T00:25:23.050Z,1031.91
2016-12-28T00:26:37.854Z,1031.88
2016-12-28T00:27:52.855Z,1031.88
2016-12-28T00:29:08.466Z,1031.88
2016-12-28T00:30:24.194Z,1031.91
2016-12-28T00:31:38.843Z,1031.88
2016-12-28T00:32:53.940Z,1031.89
2016-12-28T00:34:09.661Z,1031.87
2016-12-28T00:35:25.118Z,1031.86
2016-12-28T00:36:40.151Z,1031.88
2016-12-28T00:37:54.942Z,1031.86
2016-12-28T00:39:09.970Z,1031.82
2016-12-28T00:40:24.333Z,1031.85
2016-12-28T00:41:39.333Z,1031.88
2016-12-28T00:42:53.964Z,1031.95
2016-12-28T00:44:08.765Z,1032.01
2016-12-28T00:45:24.409Z,1032.06
2016-12-28T00:46:39.746Z,1032.03
2016-12-28T00:47:55.015Z,1031.99
2016-12-28T00:49:09.575Z,1032.02
2016-12-28T00:50:24.452Z,1032.09
2016-12-28T00:51:38.995Z,1032.07
2016-12-28T00:52:53.228Z,1032.11
2016-12-28T00:54:08.130Z,1032.12
2016-12-28T00:55:23.074Z,1032.09
2016-12-28T00:56:37.975Z,1032.12
2016-12-28T00:57:52.865Z,1032.04
2016-12-28T00:59:07.026Z,1032.05
2016-12-28T01:00:21.502Z,1032.04
2016-12-28T01:01:37.175Z,1032.06
2016-12-28T01:02:52.294Z,1032.1
2016-12-28T01:04:07.471Z,1032.08
2016-12-28T01:05:22.208Z,1032.06
2016-12-28T01:06:36.926Z,1032.09
2016-12-28T01:07:51.533Z,1032.12
2016-12-28T01:09:06.413Z,1032.13
2016-12-28T01:10:20.843Z,1032.08
2016-12-28T01:11:35.061Z,1032.09
2016-12-28T01:12:49.752Z,1032.11
2016-12-28T01:14:04.437Z,1032.13
2016-12-28T01:15:18.596Z,1032.13
2016-12-28T01:16:33.397Z,1032.07
2016-12-28T01:17:50.618Z,1032.07
2016-12-28T01:19:04.670Z,1032.09
2016-12-28T01:20:19.130Z,1032.13
2016-12-28T01:21:34.593Z,1032.14
2016-12-28T01:22:49.390Z,1032.21
2016-12-28T01:24:03.481Z,1032.21
2016-12-28T01:25:17.984Z,1032.2
2016-12-28T01:26:33.465Z,1032.17
2016-12-28T01:27:48.401Z,1032.23
2016-12-28T01:29:03.073Z,1032.2
2016-12-28T01:30:17.168Z,1032.23
2016-12-28T01:31:31.263Z,1032.26
2016-12-28T01:32:46.171Z,1032.25
2016-12-28T01:34:00.755Z,1032.24
2016-12-28T01:35:16.435Z,1032.23
2016-12-28T01:36:30.605Z,1032.25
2016-12-28T01:37:45.032Z,1032.3
2016-12-28T01:38:59.624Z,1032.25
2016-12-28T01:40:14.786Z,1032.28
2016-12-28T01:41:29.098Z,1032.25
2016-12-28T01:42:43.816Z,1032.24
2016-12-28T01:44:13.417Z,1032.22
2016-12-28T01:45:28.142Z,1032.26
2016-12-28T01:46:42.541Z,1032.25
2016-12-28T01:47:57.264Z,1032.26
2016-12-28T01:49:11.731Z,1032.26
2016-12-28T01:50:26.877Z,1032.25
2016-12-28T01:51:41.288Z,1032.22
2016-12-28T01:52:55.747Z,1032.2
2016-12-28T01:54:10.850Z,1032.22
2016-12-28T01:55:25.792Z,1032.19
2016-12-28T01:56:40.637Z,1032.12
2016-12-28T01:57:54.802Z,1032.16
2016-12-28T01:59:09.682Z,1032.15
2016-12-28T02:00:24.591Z,1032.12
2016-12-28T02:01:39.397Z,1032.08
2016-12-28T02:02:54.261Z,1032.14
2016-12-28T02:04:09.086Z,1032.06
2016-12-28T02:05:23.984Z,1031.97
2016-12-28T02:06:38.082Z,1032.01
2016-12-28T02:07:52.127Z,1031.98
2016-12-28T02:09:06.168Z,1032
2016-12-28T02:10:20.306Z,1032.02
2016-12-28T02:11:35.167Z,1031.94
2016-12-28T02:12:49.467Z,1031.95
2016-12-28T02:14:03.506Z,1031.99
2016-12-28T02:15:17.623Z,1031.94
2016-12-28T02:16:31.772Z,1031.95
2016-12-28T02:17:46.366Z,1031.88
2016-12-28T02:19:00.730Z,1031.95
2016-12-28T02:20:15.050Z,1031.93
2016-12-28T02:21:29.153Z,1031.87
2016-12-28T02:22:44.143Z,1031.88
2016-12-28T02:23:59.403Z,1031.9
2016-12-28T02:25:14.059Z,1031.88
2016-12-28T02:26:28.529Z,1031.9
2016-12-28T02:27:43.260Z,1031.87
2016-12-28T02:28:57.999Z,1031.9
2016-12-28T02:30:12.685Z,1031.89
2016-12-28T02:31:27.275Z,1031.92
2016-12-28T02:32:41.595Z,1031.92
2016-12-28T02:33:56.007Z,1031.87
2016-12-28T02:35:12.414Z,1031.87
2016-12-28T02:36:27.462Z,1031.84
2016-12-28T02:37:41.854Z,1031.82
2016-12-28T02:38:56.396Z,1031.85
2016-12-28T02:40:10.924Z,1031.81
2016-12-28T02:41:24.961Z,1031.8
2016-12-28T02:42:39.344Z,1031.82
2016-12-28T02:43:53.932Z,1031.79
2016-12-28T02:45:08.944Z,1031.77
2016-12-28T02:46:23.151Z,1031.71
2016-12-28T02:47:37.524Z,1031.64
2016-12-28T02:48:51.836Z,1031.64
2016-12-28T02:50:05.942Z,1031.63
2016-12-28T02:51:20.231Z,1031.64
2016-12-28T02:52:34.696Z,1031.63
2016-12-28T02:53:49.532Z,1031.62
2016-12-28T02:55:03.958Z,1031.57
2016-12-28T02:56:18.257Z,1031.55
2016-12-28T02:57:32.336Z,1031.55
2016-12-28T02:58:46.673Z,1031.56
2016-12-28T03:00:00.731Z,1031.55
2016-12-28T03:01:15.502Z,1031.49
2016-12-28T03:02:30.543Z,1031.5
2016-12-28T03:03:44.639Z,1031.46
2016-12-28T03:04:58.666Z,1031.44
2016-12-28T03:06:13.152Z,1031.47
2016-12-28T03:07:27.764Z,1031.46
2016-12-28T03:08:42.089Z,1031.41
2016-12-28T03:09:56.489Z,1031.44
2016-12-28T03:11:10.576Z,1031.41
2016-12-28T03:12:25.268Z,1031.45
2016-12-28T03:13:39.605Z,1031.46
2016-12-28T03:14:53.955Z,1031.45
2016-12-28T03:16:08.171Z,1031.46
2016-12-28T03:17:22.699Z,1031.43
2016-12-28T03:18:37.059Z,1031.43
2016-12-28T03:19:51.805Z,1031.44
2016-12-28T03:21:06.178Z,1031.4
2016-12-28T03:22:20.485Z,1031.39
2016-12-28T03:23:49.327Z,1031.42
2016-12-28T03:25:04.026Z,1031.4
2016-12-28T03:26:18.557Z,1031.39
2016-12-28T03:27:33.673Z,1031.37
2016-12-28T03:28:47.720Z,1031.39
2016-12-28T03:30:02.015Z,1031.43
2016-12-28T03:31:16.793Z,1031.43
2016-12-28T03:32:31.207Z,1031.45
2016-12-28T03:33:45.524Z,1031.46
2016-12-28T03:34:59.689Z,1031.47
2016-12-28T03:36:14.336Z,1031.51
2016-12-28T03:37:28.830Z,1031.5
2016-12-28T03:38:42.940Z,1031.51
2016-12-28T03:39:57.217Z,1031.48
2016-12-28T03:41:11.633Z,1031.43
2016-12-28T03:42:25.723Z,1031.4
2016-12-28T03:43:40.319Z,1031.37
2016-12-28T03:44:54.559Z,1031.37
2016-12-28T03:46:08.905Z,1031.4
2016-12-28T03:47:23.011Z,1031.35
2016-12-28T03:48:37.055Z,1031.36
2016-12-28T03:49:51.393Z,1031.36
2016-12-28T03:51:05.791Z,1031.32
2016-12-28T03:52:22.484Z,1031.28
2016-12-28T03:53:36.813Z,1031.23
2016-12-28T03:54:51.217Z,1031.19
2016-12-28T03:56:05.524Z,1031.15
2016-12-28T03:57:19.964Z,1031.19
2016-12-28T03:58:34.395Z,1031.2
2016-12-28T03:59:48.878Z,1031.18
2016-12-28T04:01:03.038Z,1031.21
2016-12-28T04:02:17.971Z,1031.3
2016-12-28T04:03:32.929Z,1031.37
2016-12-28T04:04:47.063Z,1031.43
2016-12-28T04:06:01.606Z,1031.41
2016-12-28T04:07:16.074Z,1031.35
2016-12-28T04:08:30.806Z,1031.31
2016-12-28T04:09:45.638Z,1031.36
2016-12-28T04:12:28.769Z,1031.37
2016-12-28T04:13:43.414Z,1031.41
2016-12-28T04:14:57.987Z,1031.43
2016-12-28T04:16:12.505Z,1031.46
2016-12-28T04:17:41.923Z,1031.52
2016-12-28T04:18:56.203Z,1031.54
2016-12-28T04:20:10.573Z,1031.54
2016-12-28T04:21:24.969Z,1031.53
2016-12-28T04:22:39.709Z,1031.56
2016-12-28T04:23:53.767Z,1031.55
2016-12-28T04:25:08.163Z,1031.53
2016-12-28T04:26:22.758Z,1031.51
2016-12-28T04:27:36.892Z,1031.53
2016-12-28T04:28:51.337Z,1031.53
2016-12-28T04:30:05.422Z,1031.62
2016-12-28T04:31:20.420Z,1031.61
2016-12-28T04:32:35.489Z,1031.59
2016-12-28T04:33:49.574Z,1031.61
2016-12-28T04:35:04.101Z,1031.64
2016-12-28T04:36:18.170Z,1031.64
2016-12-28T04:37:32.334Z,1031.59
2016-12-28T04:38:46.759Z,1031.62
2016-12-28T04:40:00.809Z,1031.63
2016-12-28T04:41:14.899Z,1031.62
2016-12-28T04:42:29.024Z,1031.6
2016-12-28T04:43:44.140Z,1031.56
2016-12-28T04:44:59.020Z,1031.58
2016-12-28T04:46:14.424Z,1031.63
2016-12-28T04:47:29.082Z,1031.62
2016-12-28T04:48:43.652Z,1031.64
2016-12-28T04:49:58.401Z,1031.62
2016-12-28T04:51:12.525Z,1031.64
2016-12-28T04:52:27.285Z,1031.62
2016-12-28T04:53:41.431Z,1031.63
2016-12-28T04:54:56.271Z,1031.62
2016-12-28T04:56:10.754Z,1031.62
2016-12-28T04:57:24.993Z,1031.6
2016-12-28T04:58:39.414Z,1031.64
2016-12-28T04:59:54.267Z,1031.58
2016-12-28T05:01:09.445Z,1031.62
2016-12-28T05:02:24.281Z,1031.62
2016-12-28T05:03:38.536Z,1031.64
2016-12-28T05:04:53.762Z,1031.65
2016-12-28T05:06:08.123Z,1031.67
2016-12-28T05:07:22.405Z,1031.61
2016-12-28T05:08:36.824Z,1031.6
2016-12-28T05:09:53.706Z,1031.6
2016-12-28T05:11:08.115Z,1031.61
2016-12-28T05:12:22.297Z,1031.59
2016-12-28T05:13:36.487Z,1031.6
2016-12-28T05:14:51.184Z,1031.62
2016-12-28T05:16:05.391Z,1031.58
2016-12-28T05:17:20.172Z,1031.57
2016-12-28T05:18:34.215Z,1031.57
2016-12-28T05:19:48.623Z,1031.61
2016-12-28T05:21:03.010Z,1031.66
2016-12-28T05:22:17.104Z,1031.64
2016-12-28T05:23:31.410Z,1031.69
2016-12-28T05:24:46.945Z,1031.69
2016-12-28T05:26:01.543Z,1031.67
2016-12-28T05:27:15.961Z,1031.66
2016-12-28T05:28:30.089Z,1031.67
2016-12-28T05:29:44.226Z,1031.79
2016-12-28T05:30:58.559Z,1031.81
2016-12-28T05:32:12.684Z,1031.87
2016-12-28T05:33:27.349Z,1031.83
2016-12-28T05:34:41.481Z,1031.83
2016-12-28T05:35:56.218Z,1031.85
2016-12-28T05:37:10.514Z,1031.9
2016-12-28T05:38:24.616Z,1031.86
2016-12-28T05:39:39.223Z,1031.92
2016-12-28T05:40:53.331Z,1031.97
2016-12-28T05:42:07.534Z,1031.97
2016-12-28T05:43:21.617Z,1031.91
2016-12-28T05:44:36.372Z,1031.9
2016-12-28T05:45:51.479Z,1031.89
2016-12-28T05:47:05.583Z,1031.9
2016-12-28T05:48:19.875Z,1031.95
2016-12-28T05:49:34.427Z,1031.99
2016-12-28T05:50:49.736Z,1031.99
2016-12-28T05:52:04.477Z,1032.04
2016-12-28T05:53:18.692Z,1032.06
2016-12-28T05:54:32.968Z,1032.11
2016-12-28T05:55:48.521Z,1032.09
2016-12-28T05:57:03.108Z,1032.02
2016-12-28T05:58:18.280Z,1031.98
2016-12-28T05:59:32.665Z,1032
2016-12-28T06:00:46.705Z,1032.04
2016-12-28T06:02:01.114Z,1032.01
2016-12-28T06:03:16.139Z,1032.04
2016-12-28T06:04:30.585Z,1032
2016-12-28T06:05:44.746Z,1031.99
2016-12-28T06:06:58.864Z,1032.01
2016-12-28T06:08:13.100Z,1031.93
2016-12-28T06:09:27.685Z,1031.97
2016-12-28T06:10:42.172Z,1032.02
2016-12-28T06:11:56.325Z,1032.05
2016-12-28T06:13:10.495Z,1032.12
2016-12-28T06:14:24.534Z,1032.19
2016-12-28T06:15:39.122Z,1032.19
2016-12-28T06:16:53.857Z,1032.22
2016-12-28T06:18:08.063Z,1032.23
2016-12-28T06:19:22.521Z,1032.26
2016-12-28T06:20:36.972Z,1032.28
2016-12-28T06:21:51.321Z,1032.24
2016-12-28T06:23:05.908Z,1032.25
2016-12-28T06:24:20.263Z,1032.19
2016-12-28T06:25:35.153Z,1032.16
2016-12-28T06:26:56.860Z,1032.07
2016-12-28T06:28:14.677Z,1032.05
2016-12-28T06:29:32.380Z,1032
2016-12-28T06:30:51.699Z,1031.98
2016-12-28T06:32:08.812Z,1031.96
2016-12-28T06:33:30.064Z,1031.96
2016-12-28T06:34:45.430Z,1031.97
2016-12-28T06:35:59.926Z,1032
2016-12-28T06:37:14.569Z,1032.08
2016-12-28T06:38:28.953Z,1032.16
2016-12-28T06:39:43.509Z,1032.18
2016-12-28T06:40:58.211Z,1032.16
2016-12-28T06:42:12.396Z,1032.1
2016-12-28T06:43:27.252Z,1032.11
2016-12-28T06:44:42.528Z,1032.13
2016-12-28T06:45:56.688Z,1032.09
2016-12-28T06:47:11.054Z,1032.04
2016-12-28T06:48:25.829Z,1032.03
2016-12-28T06:49:39.947Z,1032.06
2016-12-28T06:50:54.038Z,1032.04
2016-12-28T06:52:08.149Z,1032.11
2016-12-28T06:53:22.972Z,1032.13
2016-12-28T06:54:37.537Z,1032.2
2016-12-28T06:55:52.016Z,1032.2
2016-12-28T06:57:06.084Z,1032.17
2016-12-28T06:58:20.180Z,1032.19
2016-12-28T06:59:34.597Z,1032.15
2016-12-28T07:00:49.195Z,1032.12
2016-12-28T07:02:03.247Z,1032.09
2016-12-28T07:03:18.008Z,1032.11
2016-12-28T07:04:32.473Z,1032.1
2016-12-28T07:05:47.061Z,1032.09
2016-12-28T07:07:01.193Z,1032.08
2016-12-28T07:08:15.791Z,1032.08
2016-12-28T07:09:29.873Z,1032.14
2016-12-28T07:10:43.913Z,1032.11
2016-12-28T07:11:58.578Z,1032.17
2016-12-28T07:13:13.432Z,1032.2
2016-12-28T07:14:28.102Z,1032.22
2016-12-28T07:15:42.153Z,1032.22
2016-12-28T07:16:56.854Z,1032.24
2016-12-28T07:21:08.866Z,1032.27
2016-12-28T07:22:23.823Z,1032.23
2016-12-28T07:23:38.121Z,1032.22
2016-12-28T07:24:52.268Z,1032.25
2016-12-28T07:26:06.379Z,1032.35
2016-12-28T07:28:49.655Z,1032.48
2016-12-28T07:30:04.584Z,1032.45
2016-12-28T07:31:19.044Z,1032.46
2016-12-28T07:32:34.025Z,1032.49
2016-12-28T07:33:48.274Z,1032.43
2016-12-28T07:35:02.737Z,1032.42
2016-12-28T07:36:17.068Z,1032.46
2016-12-28T07:37:31.122Z,1032.45
2016-12-28T07:38:45.311Z,1032.46
2016-12-28T07:39:59.518Z,1032.4
2016-12-28T07:41:14.228Z,1032.39
2016-12-28T07:42:28.658Z,1032.4
2016-12-28T07:43:43.106Z,1032.4
2016-12-28T07:44:57.524Z,1032.42
2016-12-28T07:46:14.131Z,1032.41
2016-12-28T07:47:28.810Z,1032.45
2016-12-28T07:48:42.855Z,1032.44
2016-12-28T07:49:56.987Z,1032.41
2016-12-28T07:51:11.693Z,1032.45
2016-12-28T07:52:25.888Z,1032.47
2016-12-28T07:53:40.185Z,1032.51
2016-12-28T07:54:54.259Z,1032.44
2016-12-28T07:56:08.791Z,1032.52
2016-12-28T07:57:23.178Z,1032.5
2016-12-28T07:58:38.340Z,1032.5
2016-12-28T07:59:52.647Z,1032.48
2016-12-28T08:01:07.194Z,1032.48
2016-12-28T08:02:21.401Z,1032.5
2016-12-28T08:03:35.819Z,1032.53
2016-12-28T08:04:51.029Z,1032.51
2016-12-28T08:06:06.136Z,1032.54
2016-12-28T08:07:20.557Z,1032.51
2016-12-28T08:08:34.627Z,1032.5
2016-12-28T08:09:49.065Z,1032.5
2016-12-28T08:11:03.192Z,1032.53
2016-12-28T08:12:17.786Z,1032.52
2016-12-28T08:13:31.885Z,1032.49
2016-12-28T08:14:45.920Z,1032.43
2016-12-28T08:15:59.982Z,1032.4
2016-12-28T08:17:29.107Z,1032.44
2016-12-28T08:18:43.705Z,1032.5
2016-12-28T08:19:58.059Z,1032.49
2016-12-28T08:21:12.566Z,1032.54
2016-12-28T08:22:26.692Z,1032.57
2016-12-28T08:23:40.782Z,1032.54
2016-12-28T08:24:55.760Z,1032.61
2016-12-28T08:26:10.059Z,1032.66
2016-12-28T08:27:24.365Z,1032.65
2016-12-28T08:28:38.528Z,1032.66
2016-12-28T08:29:52.628Z,1032.64
2016-12-28T08:31:06.995Z,1032.65
2016-12-28T08:32:21.428Z,1032.61
2016-12-28T08:33:36.155Z,1032.67
2016-12-28T08:34:50.299Z,1032.66
2016-12-28T08:36:05.028Z,1032.68
2016-12-28T08:37:19.352Z,1032.64
2016-12-28T08:38:33.394Z,1032.62
2016-12-28T08:41:16.602Z,1032.6
2016-12-28T08:42:30.972Z,1032.55
2016-12-28T08:43:45.015Z,1032.56
2016-12-28T08:44:59.455Z,1032.58
2016-12-28T08:46:13.494Z,1032.58
2016-12-28T08:47:27.899Z,1032.61
2016-12-28T08:48:42.550Z,1032.61
2016-12-28T08:49:56.965Z,1032.58
2016-12-28T08:51:11.089Z,1032.61
2016-12-28T08:52:25.401Z,1032.59
2016-12-28T08:53:39.516Z,1032.56
2016-12-28T08:54:55.007Z,1032.59
2016-12-28T08:57:43.105Z,1032.56
2016-12-28T08:59:00.106Z,1032.5
2016-12-28T09:00:15.808Z,1032.49
2016-12-28T09:01:30.345Z,1032.49
2016-12-28T09:02:44.523Z,1032.47
2016-12-28T09:04:01.272Z,1032.56
2016-12-28T09:05:17.280Z,1032.51
2016-12-28T09:06:31.983Z,1032.48
2016-12-28T09:07:46.383Z,1032.48
2016-12-28T09:09:00.753Z,1032.52
2016-12-28T09:10:16.056Z,1032.51
2016-12-28T09:11:30.516Z,1032.47
2016-12-28T09:15:13.244Z,1032.43
2016-12-28T09:16:27.687Z,1032.47
2016-12-28T09:17:41.788Z,1032.44
2016-12-28T09:18:56.189Z,1032.45
2016-12-28T09:20:10.303Z,1032.43
2016-12-28T09:21:24.763Z,1032.45
2016-12-28T09:22:39.082Z,1032.44
2016-12-28T09:23:53.491Z,1032.43
2016-12-28T09:25:07.820Z,1032.41
2016-12-28T09:27:51.933Z,1032.49
2016-12-28T09:29:06.294Z,1032.47
2016-12-28T09:30:21.015Z,1032.51
2016-12-28T09:31:35.393Z,1032.47
2016-12-28T09:32:49.745Z,1032.41
2016-12-28T09:34:03.957Z,1032.47
2016-12-28T09:35:18.091Z,1032.47
2016-12-28T09:36:32.806Z,1032.58
2016-12-28T09:37:47.955Z,1032.58
2016-12-28T09:39:02.119Z,1032.6
2016-12-28T09:40:16.533Z,1032.67
2016-12-28T09:41:31.033Z,1032.64
2016-12-28T09:42:45.952Z,1032.63
2016-12-28T09:44:00.108Z,1032.6
2016-12-28T09:45:14.899Z,1032.54
2016-12-28T09:46:29.618Z,1032.5
2016-12-28T09:47:43.908Z,1032.56
2016-12-28T09:48:58.627Z,1032.56
2016-12-28T09:50:13.575Z,1032.54
2016-12-28T09:51:28.815Z,1032.58
2016-12-28T09:52:42.998Z,1032.63
2016-12-28T09:53:57.235Z,1032.6
2016-12-28T09:55:11.830Z,1032.63
2016-12-28T09:56:26.151Z,1032.6
2016-12-28T09:57:40.787Z,1032.6
2016-12-28T09:58:55.695Z,1032.55
2016-12-28T10:00:10.110Z,1032.6
2016-12-28T10:01:24.678Z,1032.63
2016-12-28T10:02:39.764Z,1032.67
2016-12-28T10:03:54.296Z,1032.67
2016-12-28T10:05:09.002Z,1032.7
2016-12-28T10:06:24.420Z,1032.68
2016-12-28T10:07:39.225Z,1032.65
2016-12-28T10:08:53.923Z,1032.69
2016-12-28T10:10:08.178Z,1032.69
2016-12-28T10:11:23.586Z,1032.67
2016-12-28T10:12:38.562Z,1032.65
2016-12-28T10:13:53.935Z,1032.69
2016-12-28T10:15:09.346Z,1032.66
2016-12-28T10:16:23.690Z,1032.68
2016-12-28T10:17:38.046Z,1032.66
2016-12-28T10:18:53.339Z,1032.68
2016-12-28T10:20:08.717Z,1032.66
2016-12-28T10:21:23.257Z,1032.65
2016-12-28T10:22:40.671Z,1032.7
2016-12-28T10:24:10.375Z,1032.69
2016-12-28T10:25:30.398Z,1032.71
2016-12-28T10:26:45.706Z,1032.76
2016-12-28T10:28:00.915Z,1032.74
2016-12-28T10:29:15.381Z,1032.76
2016-12-28T10:30:30.682Z,1032.77
2016-12-28T10:31:46.636Z,1032.76
2016-12-28T10:33:01.513Z,1032.76
2016-12-28T10:34:15.843Z,1032.66
2016-12-28T10:35:30.543Z,1032.71
2016-12-28T10:36:45.190Z,1032.7
2016-12-28T10:38:00.292Z,1032.78
2016-12-28T10:39:15.867Z,1032.82
2016-12-28T10:40:30.346Z,1032.74
2016-12-28T10:41:45.083Z,1032.7
2016-12-28T10:42:59.872Z,1032.69
2016-12-28T10:44:28.822Z,1032.65
2016-12-28T10:45:43.689Z,1032.61
2016-12-28T10:46:58.354Z,1032.68
2016-12-28T10:48:12.666Z,1032.63
2016-12-28T10:49:27.229Z,1032.54
2016-12-28T10:50:42.053Z,1032.58
2016-12-28T10:51:57.274Z,1032.56
2016-12-28T10:53:11.717Z,1032.56
2016-12-28T10:54:26.329Z,1032.53
2016-12-28T10:55:42.227Z,1032.5
2016-12-28T10:56:57.506Z,1032.49
2016-12-28T10:58:12.299Z,1032.45
2016-12-28T10:59:26.838Z,1032.41
2016-12-28T11:00:41.258Z,1032.4
2016-12-28T11:01:56.638Z,1032.34
2016-12-28T11:03:11.400Z,1032.37
2016-12-28T11:04:25.924Z,1032.36
2016-12-28T11:05:40.129Z,1032.36
2016-12-28T11:06:54.624Z,1032.39
2016-12-28T11:08:09.525Z,1032.33
2016-12-28T11:09:23.882Z,1032.28
2016-12-28T11:10:38.058Z,1032.26
2016-12-28T11:11:52.571Z,1032.24
2016-12-28T11:13:07.952Z,1032.25
2016-12-28T11:14:23.176Z,1032.2
2016-12-28T11:15:38.249Z,1032.24
2016-12-28T11:16:53.658Z,1032.19
2016-12-28T11:18:08.888Z,1032.25
2016-12-28T11:19:25.145Z,1032.28
2016-12-28T11:20:39.926Z,1032.28
2016-12-28T11:21:54.401Z,1032.22
2016-12-28T11:23:09.611Z,1032.17
2016-12-28T11:24:25.431Z,1032.13
2016-12-28T11:25:40.286Z,1032.08
2016-12-28T11:26:55.079Z,1032.05
2016-12-28T11:28:09.262Z,1032.12
2016-12-28T11:29:24.339Z,1032.1
2016-12-28T11:30:39.429Z,1032.09
2016-12-28T11:31:54.475Z,1032.07
2016-12-28T11:33:10.084Z,1032.1
2016-12-28T11:34:24.729Z,1032.06
2016-12-28T11:35:39.450Z,1032.1
2016-12-28T11:36:53.814Z,1032.02
2016-12-28T11:38:08.331Z,1032.01
2016-12-28T11:39:23.372Z,1032.01
2016-12-28T11:40:40.274Z,1031.98
2016-12-28T11:41:54.740Z,1031.93
2016-12-28T11:43:10.677Z,1031.97
2016-12-28T11:44:25.909Z,1031.87
2016-12-28T11:45:40.952Z,1031.86
2016-12-28T11:46:55.968Z,1031.85
2016-12-28T11:48:11.410Z,1031.79
2016-12-28T11:49:25.913Z,1031.71
2016-12-28T11:50:40.243Z,1031.71
2016-12-28T11:51:55.083Z,1031.74
2016-12-28T11:53:10.566Z,1031.74
2016-12-28T11:54:25.068Z,1031.71
2016-12-28T11:55:39.625Z,1031.65
2016-12-28T11:56:54.165Z,1031.64
2016-12-28T11:58:09.548Z,1031.65
2016-12-28T11:59:24.172Z,1031.58
2016-12-28T12:00:39.096Z,1031.61
2016-12-28T12:01:53.320Z,1031.6
2016-12-28T12:03:08.049Z,1031.6
2016-12-28T12:04:22.816Z,1031.6
2016-12-28T12:05:37.334Z,1031.62
2016-12-28T12:06:51.855Z,1031.61
2016-12-28T12:08:06.234Z,1031.64
2016-12-28T12:09:20.777Z,1031.67
2016-12-28T12:10:35.306Z,1031.66
2016-12-28T12:11:49.967Z,1031.65
2016-12-28T12:13:04.701Z,1031.65
2016-12-28T12:14:19.518Z,1031.66
2016-12-28T12:15:34.284Z,1031.64
2016-12-28T12:16:48.737Z,1031.65
2016-12-28T12:18:04.167Z,1031.67
2016-12-28T12:19:18.966Z,1031.67
2016-12-28T12:20:33.706Z,1031.63
2016-12-28T12:21:49.657Z,1031.59
2016-12-28T12:23:05.072Z,1031.58
2016-12-28T12:24:19.368Z,1031.57
2016-12-28T12:25:34.004Z,1031.58
2016-12-28T12:26:49.989Z,1031.54
2016-12-28T12:28:04.733Z,1031.56
2016-12-28T12:29:19.719Z,1031.52
2016-12-28T12:30:35.920Z,1031.49
2016-12-28T12:31:51.252Z,1031.47
2016-12-28T12:33:06.847Z,1031.48
2016-12-28T12:34:21.911Z,1031.42
2016-12-28T12:35:37.007Z,1031.43
2016-12-28T12:36:52.458Z,1031.39
2016-12-28T12:38:08.580Z,1031.38
2016-12-28T12:39:23.387Z,1031.38
2016-12-28T12:40:38.013Z,1031.41
2016-12-28T12:41:52.934Z,1031.37
2016-12-28T12:43:07.850Z,1031.37
2016-12-28T12:44:22.196Z,1031.38
2016-12-28T12:45:36.794Z,1031.38
2016-12-28T12:46:51.511Z,1031.39
2016-12-28T12:48:06.107Z,1031.37
2016-12-28T12:49:20.677Z,1031.35
2016-12-28T12:50:50.243Z,1031.36
2016-12-28T12:52:05.001Z,1031.37
2016-12-28T12:53:19.608Z,1031.31
2016-12-28T12:54:34.718Z,1031.3
2016-12-28T12:55:49.273Z,1031.32
2016-12-28T12:57:03.610Z,1031.37
2016-12-28T12:58:21.332Z,1031.39
2016-12-28T12:59:36.872Z,1031.47
2016-12-28T13:00:51.754Z,1031.45
2016-12-28T13:02:05.854Z,1031.45
2016-12-28T13:03:20.134Z,1031.41
2016-12-28T13:04:35.414Z,1031.43
2016-12-28T13:05:51.579Z,1031.5
2016-12-28T13:07:20.608Z,1031.42
2016-12-28T13:08:35.537Z,1031.43
2016-12-28T13:09:50.434Z,1031.42
2016-12-28T13:11:05.642Z,1031.44
2016-12-28T13:12:21.307Z,1031.41
2016-12-28T13:13:36.455Z,1031.39
2016-12-28T13:14:52.633Z,1031.4
2016-12-28T13:16:08.452Z,1031.38
2016-12-28T13:17:24.100Z,1031.32
2016-12-28T13:18:53.768Z,1031.28
2016-12-28T13:20:24.142Z,1031.27
2016-12-28T13:21:40.658Z,1031.28
2016-12-28T13:22:56.386Z,1031.24
2016-12-28T13:24:10.557Z,1031.23
2016-12-28T13:25:24.851Z,1031.22
2016-12-28T13:26:40.300Z,1031.2
2016-12-28T13:28:40.335Z,1031.22
2016-12-28T13:29:54.783Z,1031.18
2016-12-28T13:31:09.392Z,1031.15
2016-12-28T13:32:23.986Z,1031.19
2016-12-28T13:33:38.555Z,1031.2
2016-12-28T13:34:53.075Z,1031.21
2016-12-28T13:36:07.646Z,1031.16
2016-12-28T13:37:23.360Z,1031.21
2016-12-28T13:38:37.866Z,1031.25
2016-12-28T13:39:52.226Z,1031.23
2016-12-28T13:41:06.771Z,1031.26
2016-12-28T13:42:21.629Z,1031.24
2016-12-28T13:43:36.318Z,1031.25
2016-12-28T13:44:51.146Z,1031.22
2016-12-28T13:46:08.399Z,1031.25
2016-12-28T13:47:22.611Z,1031.25
2016-12-28T13:48:37.272Z,1031.22
2016-12-28T13:49:51.902Z,1031.23
2016-12-28T13:51:08.525Z,1031.27
2016-12-28T13:52:22.861Z,1031.28
2016-12-28T13:53:37.490Z,1031.27
2016-12-28T13:54:52.544Z,1031.24
2016-12-28T13:56:07.129Z,1031.2
2016-12-28T13:57:22.001Z,1031.22
2016-12-28T13:58:36.346Z,1031.19
2016-12-28T13:59:51.599Z,1031.18
2016-12-28T14:01:07.598Z,1031.17
2016-12-28T14:02:22.444Z,1031.22
2016-12-28T14:03:37.310Z,1031.24
2016-12-28T14:04:51.529Z,1031.26
2016-12-28T14:06:06.426Z,1031.29
2016-12-28T14:07:21.123Z,1031.25
2016-12-28T14:08:35.893Z,1031.34
2016-12-28T14:09:50.517Z,1031.31
2016-12-28T14:11:05.243Z,1031.33
2016-12-28T14:12:19.853Z,1031.36
2016-12-28T14:13:35.239Z,1031.3
2016-12-28T14:14:49.432Z,1031.31
2016-12-28T14:16:03.908Z,1031.3
2016-12-28T14:17:21.528Z,1031.3
2016-12-28T14:18:51.669Z,1031.32
2016-12-28T14:20:07.239Z,1031.3
2016-12-28T14:21:22.245Z,1031.31
2016-12-28T14:22:37.091Z,1031.28
2016-12-28T14:23:51.609Z,1031.25
2016-12-28T14:25:06.383Z,1031.25
2016-12-28T14:26:21.705Z,1031.24
2016-12-28T14:27:36.253Z,1031.28
2016-12-28T14:28:51.738Z,1031.2
2016-12-28T14:30:06.557Z,1031.19
2016-12-28T14:31:21.714Z,1031.18
2016-12-28T14:32:36.461Z,1031.18
2016-12-28T14:33:50.827Z,1031.16
2016-12-28T14:35:05.832Z,1031.16
2016-12-28T14:36:19.959Z,1031.18
2016-12-28T14:37:35.042Z,1031.22
2016-12-28T14:38:49.662Z,1031.27
2016-12-28T14:40:04.300Z,1031.27
2016-12-28T14:41:18.676Z,1031.23
2016-12-28T14:42:32.847Z,1031.24
2016-12-28T14:43:47.324Z,1031.2
2016-12-28T14:45:02.671Z,1031.16
2016-12-28T14:46:16.794Z,1031.17
2016-12-28T14:47:31.208Z,1031.13
2016-12-28T14:48:45.645Z,1031.13
2016-12-28T14:49:59.964Z,1031.1
2016-12-28T14:51:14.698Z,1031.1
2016-12-28T14:52:29.410Z,1031.13
2016-12-28T14:53:43.493Z,1031.12
2016-12-28T14:54:58.391Z,1031.12
2016-12-28T14:56:12.868Z,1031.1
2016-12-28T14:57:28.181Z,1031.11
2016-12-28T14:58:42.313Z,1031.1
2016-12-28T14:59:57.541Z,1031.09
2016-12-28T15:01:12.460Z,1031.05
2016-12-28T15:02:26.549Z,1031.07
2016-12-28T15:03:42.022Z,1031.07
2016-12-28T15:05:11.476Z,1031.09
2016-12-28T15:06:25.852Z,1031.08
2016-12-28T15:07:40.720Z,1031.11
2016-12-28T15:08:55.724Z,1031.09
2016-12-28T15:10:10.461Z,1031.08
2016-12-28T15:11:25.601Z,1031.06
2016-12-28T15:12:40.143Z,1031.01
2016-12-28T15:13:55.536Z,1031.05
2016-12-28T15:15:10.550Z,1031.06
2016-12-28T15:16:25.877Z,1031.05
2016-12-28T15:17:39.939Z,1031.05
2016-12-28T15:18:54.491Z,1031.08
2016-12-28T15:20:08.599Z,1031.11
2016-12-28T15:21:23.798Z,1031.14
2016-12-28T15:22:38.650Z,1031.13
2016-12-28T15:23:53.421Z,1031.17